sensor_id;sensor_type;location;lat;lon;timestamp;P1;durP1;ratioP1;P2;durP2;ratioP2
46411;SDS011;32113;42.012;24.870;2023-04-06T00:01:18;13.50;;;10.57;;
46411;SDS011;32113;42.012;24.870;2023-04-06T00:03:44;12.15;;;10.05;;
46411;SDS011;32113;42.012;24.870;2023-04-06T00:06:09;12.73;;;10.10;;
46411;SDS011;32113;42.012;24.870;2023-04-06T00:08:35;12.23;;;10.35;;
46411;SDS011;32113;42.012;24.870;2023-04-06T00:11:00;11.90;;;10.20;;
46411;SDS011;32113;42.012;24.870;2023-04-06T00:13:26;13.50;;;10.93;;
46411;SDS011;32113;42.012;24.870;2023-04-06T00:15:51;13.05;;;10.80;;
46411;SDS011;32113;42.012;24.870;2023-04-06T00:18:16;13.23;;;10.85;;
46411;SDS011;32113;42.012;24.870;2023-04-06T00:20:42;14.35;;;11.00;;
46411;SDS011;32113;42.012;24.870;2023-04-06T00:23:07;11.85;;;10.50;;
46411;SDS011;32113;42.012;24.870;2023-04-06T00:25:33;12.88;;;10.07;;
46411;SDS011;32113;42.012;24.870;2023-04-06T00:27:58;11.70;;;10.48;;
46411;SDS011;32113;42.012;24.870;2023-04-06T00:30:24;14.40;;;11.20;;
46411;SDS011;32113;42.012;24.870;2023-04-06T00:32:49;11.73;;;10.20;;
46411;SDS011;32113;42.012;24.870;2023-04-06T00:35:15;12.93;;;10.82;;
46411;SDS011;32113;42.012;24.870;2023-04-06T00:37:40;13.80;;;11.25;;
46411;SDS011;32113;42.012;24.870;2023-04-06T00:40:06;15.07;;;11.75;;
46411;SDS011;32113;42.012;24.870;2023-04-06T00:42:32;12.75;;;10.93;;
46411;SDS011;32113;42.012;24.870;2023-04-06T00:44:58;13.27;;;11.15;;
46411;SDS011;32113;42.012;24.870;2023-04-06T00:47:25;13.13;;;10.65;;
46411;SDS011;32113;42.012;24.870;2023-04-06T00:49:51;10.90;;;9.73;;
46411;SDS011;32113;42.012;24.870;2023-04-06T00:52:17;11.20;;;9.60;;
46411;SDS011;32113;42.012;24.870;2023-04-06T00:54:43;12.43;;;9.85;;
46411;SDS011;32113;42.012;24.870;2023-04-06T00:57:09;12.90;;;10.50;;
46411;SDS011;32113;42.012;24.870;2023-04-06T00:59:36;12.82;;;11.20;;
46411;SDS011;32113;42.012;24.870;2023-04-06T01:02:01;12.35;;;10.30;;
46411;SDS011;32113;42.012;24.870;2023-04-06T01:04:27;12.05;;;10.52;;
46411;SDS011;32113;42.012;24.870;2023-04-06T01:06:52;12.15;;;10.27;;
46411;SDS011;32113;42.012;24.870;2023-04-06T01:09:18;12.48;;;9.95;;
46411;SDS011;32113;42.012;24.870;2023-04-06T01:11:43;12.63;;;10.27;;
46411;SDS011;32113;42.012;24.870;2023-04-06T01:14:09;10.75;;;9.23;;
46411;SDS011;32113;42.012;24.870;2023-04-06T01:16:35;13.60;;;10.45;;
46411;SDS011;32113;42.012;24.870;2023-04-06T01:19:00;11.55;;;9.75;;
46411;SDS011;32113;42.012;24.870;2023-04-06T01:21:31;11.48;;;10.15;;
46411;SDS011;32113;42.012;24.870;2023-04-06T01:23:57;11.00;;;9.82;;
46411;SDS011;32113;42.012;24.870;2023-04-06T01:26:22;11.15;;;9.43;;
46411;SDS011;32113;42.012;24.870;2023-04-06T01:28:48;13.70;;;10.38;;
46411;SDS011;32113;42.012;24.870;2023-04-06T01:31:13;12.43;;;10.02;;
46411;SDS011;32113;42.012;24.870;2023-04-06T01:33:39;13.88;;;10.38;;
46411;SDS011;32113;42.012;24.870;2023-04-06T01:36:05;19.30;;;12.45;;
46411;SDS011;32113;42.012;24.870;2023-04-06T01:38:30;13.27;;;10.80;;
46411;SDS011;32113;42.012;24.870;2023-04-06T01:40:56;15.10;;;11.05;;
46411;SDS011;32113;42.012;24.870;2023-04-06T01:43:21;13.32;;;10.43;;
46411;SDS011;32113;42.012;24.870;2023-04-06T01:45:48;20.55;;;12.98;;
46411;SDS011;32113;42.012;24.870;2023-04-06T01:48:13;21.23;;;13.52;;
46411;SDS011;32113;42.012;24.870;2023-04-06T01:50:39;17.70;;;12.13;;
46411;SDS011;32113;42.012;24.870;2023-04-06T01:53:04;18.15;;;11.82;;
46411;SDS011;32113;42.012;24.870;2023-04-06T01:55:30;16.27;;;11.65;;
46411;SDS011;32113;42.012;24.870;2023-04-06T01:57:55;17.55;;;11.73;;
46411;SDS011;32113;42.012;24.870;2023-04-06T02:00:21;17.30;;;11.80;;
46411;SDS011;32113;42.012;24.870;2023-04-06T02:02:47;16.60;;;12.30;;
46411;SDS011;32113;42.012;24.870;2023-04-06T02:05:12;16.35;;;11.57;;
46411;SDS011;32113;42.012;24.870;2023-04-06T02:07:38;16.52;;;11.38;;
46411;SDS011;32113;42.012;24.870;2023-04-06T02:10:03;19.15;;;12.50;;
46411;SDS011;32113;42.012;24.870;2023-04-06T02:12:29;14.15;;;11.40;;
46411;SDS011;32113;42.012;24.870;2023-04-06T02:14:55;15.98;;;11.85;;
46411;SDS011;32113;42.012;24.870;2023-04-06T02:17:20;13.90;;;11.18;;
46411;SDS011;32113;42.012;24.870;2023-04-06T02:19:46;13.48;;;11.23;;
46411;SDS011;32113;42.012;24.870;2023-04-06T02:22:11;15.20;;;11.40;;
46411;SDS011;32113;42.012;24.870;2023-04-06T02:24:37;16.08;;;12.55;;
46411;SDS011;32113;42.012;24.870;2023-04-06T02:27:02;14.88;;;12.60;;
46411;SDS011;32113;42.012;24.870;2023-04-06T02:29:28;14.25;;;12.02;;
46411;SDS011;32113;42.012;24.870;2023-04-06T02:31:53;16.80;;;12.43;;
46411;SDS011;32113;42.012;24.870;2023-04-06T02:34:19;20.27;;;13.32;;
46411;SDS011;32113;42.012;24.870;2023-04-06T02:36:45;17.08;;;12.82;;
46411;SDS011;32113;42.012;24.870;2023-04-06T02:39:10;18.13;;;13.40;;
46411;SDS011;32113;42.012;24.870;2023-04-06T02:41:36;15.45;;;12.20;;
46411;SDS011;32113;42.012;24.870;2023-04-06T02:44:02;17.95;;;12.93;;
46411;SDS011;32113;42.012;24.870;2023-04-06T02:46:28;17.60;;;12.63;;
46411;SDS011;32113;42.012;24.870;2023-04-06T02:48:54;15.07;;;11.27;;
46411;SDS011;32113;42.012;24.870;2023-04-06T02:51:19;14.57;;;11.80;;
46411;SDS011;32113;42.012;24.870;2023-04-06T02:53:45;14.50;;;12.02;;
46411;SDS011;32113;42.012;24.870;2023-04-06T02:56:11;15.60;;;11.73;;
46411;SDS011;32113;42.012;24.870;2023-04-06T02:58:36;18.17;;;12.35;;
46411;SDS011;32113;42.012;24.870;2023-04-06T03:01:02;16.85;;;11.55;;
46411;SDS011;32113;42.012;24.870;2023-04-06T03:03:28;13.82;;;11.57;;
46411;SDS011;32113;42.012;24.870;2023-04-06T03:05:55;12.80;;;11.27;;
46411;SDS011;32113;42.012;24.870;2023-04-06T03:08:23;15.50;;;11.85;;
46411;SDS011;32113;42.012;24.870;2023-04-06T03:10:48;17.85;;;12.45;;
46411;SDS011;32113;42.012;24.870;2023-04-06T03:13:14;15.18;;;11.40;;
46411;SDS011;32113;42.012;24.870;2023-04-06T03:15:39;16.40;;;12.00;;
46411;SDS011;32113;42.012;24.870;2023-04-06T03:18:05;15.00;;;12.15;;
46411;SDS011;32113;42.012;24.870;2023-04-06T03:20:30;15.02;;;12.18;;
46411;SDS011;32113;42.012;24.870;2023-04-06T03:22:56;15.63;;;10.23;;
46411;SDS011;32113;42.012;24.870;2023-04-06T03:25:21;16.73;;;10.85;;
46411;SDS011;32113;42.012;24.870;2023-04-06T03:27:47;13.18;;;10.07;;
46411;SDS011;32113;42.012;24.870;2023-04-06T03:30:12;12.98;;;10.63;;
46411;SDS011;32113;42.012;24.870;2023-04-06T03:32:38;13.32;;;10.43;;
46411;SDS011;32113;42.012;24.870;2023-04-06T03:35:03;11.52;;;10.30;;
46411;SDS011;32113;42.012;24.870;2023-04-06T03:37:29;17.08;;;11.45;;
46411;SDS011;32113;42.012;24.870;2023-04-06T03:39:55;14.10;;;10.00;;
46411;SDS011;32113;42.012;24.870;2023-04-06T03:42:20;14.13;;;10.65;;
46411;SDS011;32113;42.012;24.870;2023-04-06T03:44:46;14.02;;;9.68;;
46411;SDS011;32113;42.012;24.870;2023-04-06T03:47:11;13.48;;;9.85;;
46411;SDS011;32113;42.012;24.870;2023-04-06T03:49:37;14.82;;;9.65;;
46411;SDS011;32113;42.012;24.870;2023-04-06T03:52:02;15.40;;;9.75;;
46411;SDS011;32113;42.012;24.870;2023-04-06T03:54:27;12.27;;;9.98;;
46411;SDS011;32113;42.012;24.870;2023-04-06T03:56:53;11.25;;;8.98;;
46411;SDS011;32113;42.012;24.870;2023-04-06T03:59:18;11.45;;;9.15;;
46411;SDS011;32113;42.012;24.870;2023-04-06T04:01:44;11.65;;;9.73;;
46411;SDS011;32113;42.012;24.870;2023-04-06T04:04:10;11.13;;;9.52;;
46411;SDS011;32113;42.012;24.870;2023-04-06T04:06:35;14.32;;;9.63;;
46411;SDS011;32113;42.012;24.870;2023-04-06T04:09:01;11.73;;;8.80;;
46411;SDS011;32113;42.012;24.870;2023-04-06T04:11:27;12.45;;;8.80;;
46411;SDS011;32113;42.012;24.870;2023-04-06T04:13:53;13.68;;;10.02;;
46411;SDS011;32113;42.012;24.870;2023-04-06T04:16:18;15.30;;;9.35;;
46411;SDS011;32113;42.012;24.870;2023-04-06T04:18:43;10.70;;;8.80;;
46411;SDS011;32113;42.012;24.870;2023-04-06T04:21:10;10.50;;;8.43;;
46411;SDS011;32113;42.012;24.870;2023-04-06T04:23:35;12.40;;;10.07;;
46411;SDS011;32113;42.012;24.870;2023-04-06T04:26:01;10.77;;;8.30;;
46411;SDS011;32113;42.012;24.870;2023-04-06T04:28:26;13.10;;;8.93;;
46411;SDS011;32113;42.012;24.870;2023-04-06T04:30:52;9.90;;;7.53;;
46411;SDS011;32113;42.012;24.870;2023-04-06T04:33:17;11.07;;;8.65;;
46411;SDS011;32113;42.012;24.870;2023-04-06T04:35:42;10.70;;;8.25;;
46411;SDS011;32113;42.012;24.870;2023-04-06T04:38:08;10.75;;;8.43;;
46411;SDS011;32113;42.012;24.870;2023-04-06T04:40:33;9.95;;;7.88;;
46411;SDS011;32113;42.012;24.870;2023-04-06T04:42:59;11.82;;;8.55;;
46411;SDS011;32113;42.012;24.870;2023-04-06T04:45:24;10.52;;;8.48;;
46411;SDS011;32113;42.012;24.870;2023-04-06T04:47:50;11.32;;;7.97;;
46411;SDS011;32113;42.012;24.870;2023-04-06T04:50:15;11.40;;;7.78;;
46411;SDS011;32113;42.012;24.870;2023-04-06T04:52:40;10.70;;;7.88;;
46411;SDS011;32113;42.012;24.870;2023-04-06T04:55:06;11.65;;;8.65;;
46411;SDS011;32113;42.012;24.870;2023-04-06T04:57:32;10.98;;;8.05;;
46411;SDS011;32113;42.012;24.870;2023-04-06T04:59:57;9.73;;;7.38;;
46411;SDS011;32113;42.012;24.870;2023-04-06T05:02:23;11.23;;;8.05;;
46411;SDS011;32113;42.012;24.870;2023-04-06T05:04:48;10.55;;;7.32;;
46411;SDS011;32113;42.012;24.870;2023-04-06T05:07:13;11.73;;;8.50;;
46411;SDS011;32113;42.012;24.870;2023-04-06T05:09:40;13.13;;;8.05;;
46411;SDS011;32113;42.012;24.870;2023-04-06T05:12:06;9.85;;;7.45;;
46411;SDS011;32113;42.012;24.870;2023-04-06T05:14:31;9.63;;;6.97;;
46411;SDS011;32113;42.012;24.870;2023-04-06T05:16:57;9.45;;;7.13;;
46411;SDS011;32113;42.012;24.870;2023-04-06T05:19:22;8.30;;;6.68;;
46411;SDS011;32113;42.012;24.870;2023-04-06T05:21:48;9.73;;;6.95;;
46411;SDS011;32113;42.012;24.870;2023-04-06T05:24:14;10.57;;;7.18;;
46411;SDS011;32113;42.012;24.870;2023-04-06T05:26:39;8.32;;;6.63;;
46411;SDS011;32113;42.012;24.870;2023-04-06T05:29:05;10.80;;;7.13;;
46411;SDS011;32113;42.012;24.870;2023-04-06T05:31:31;8.43;;;6.85;;
46411;SDS011;32113;42.012;24.870;2023-04-06T05:33:56;8.25;;;6.93;;
46411;SDS011;32113;42.012;24.870;2023-04-06T05:36:22;9.60;;;7.22;;
46411;SDS011;32113;42.012;24.870;2023-04-06T05:38:47;8.60;;;6.90;;
46411;SDS011;32113;42.012;24.870;2023-04-06T05:41:15;9.27;;;7.13;;
46411;SDS011;32113;42.012;24.870;2023-04-06T05:43:40;8.88;;;6.45;;
46411;SDS011;32113;42.012;24.870;2023-04-06T05:46:07;8.63;;;6.65;;
46411;SDS011;32113;42.012;24.870;2023-04-06T05:48:32;11.05;;;7.18;;
46411;SDS011;32113;42.012;24.870;2023-04-06T05:50:58;10.13;;;7.00;;
46411;SDS011;32113;42.012;24.870;2023-04-06T05:53:24;10.55;;;7.55;;
46411;SDS011;32113;42.012;24.870;2023-04-06T05:55:51;10.13;;;7.18;;
46411;SDS011;32113;42.012;24.870;2023-04-06T05:58:17;8.77;;;6.95;;
46411;SDS011;32113;42.012;24.870;2023-04-06T06:00:42;10.40;;;7.45;;
46411;SDS011;32113;42.012;24.870;2023-04-06T06:03:08;12.75;;;8.90;;
46411;SDS011;32113;42.012;24.870;2023-04-06T06:05:34;10.88;;;9.38;;
46411;SDS011;32113;42.012;24.870;2023-04-06T06:08:00;14.52;;;10.30;;
46411;SDS011;32113;42.012;24.870;2023-04-06T06:10:27;13.48;;;7.95;;
46411;SDS011;32113;42.012;24.870;2023-04-06T06:12:52;22.20;;;10.05;;
46411;SDS011;32113;42.012;24.870;2023-04-06T06:15:18;11.88;;;8.93;;
46411;SDS011;32113;42.012;24.870;2023-04-06T06:17:43;9.93;;;8.27;;
46411;SDS011;32113;42.012;24.870;2023-04-06T06:20:09;10.63;;;8.10;;
46411;SDS011;32113;42.012;24.870;2023-04-06T06:22:35;8.82;;;7.60;;
46411;SDS011;32113;42.012;24.870;2023-04-06T06:25:01;7.72;;;6.82;;
46411;SDS011;32113;42.012;24.870;2023-04-06T06:27:27;9.73;;;7.50;;
46411;SDS011;32113;42.012;24.870;2023-04-06T06:29:52;12.77;;;8.25;;
46411;SDS011;32113;42.012;24.870;2023-04-06T06:32:18;14.55;;;8.73;;
46411;SDS011;32113;42.012;24.870;2023-04-06T06:34:44;12.02;;;9.05;;
46411;SDS011;32113;42.012;24.870;2023-04-06T06:37:09;9.05;;;7.63;;
46411;SDS011;32113;42.012;24.870;2023-04-06T06:39:35;11.15;;;8.52;;
46411;SDS011;32113;42.012;24.870;2023-04-06T06:42:00;12.38;;;7.97;;
46411;SDS011;32113;42.012;24.870;2023-04-06T06:44:26;11.40;;;8.48;;
46411;SDS011;32113;42.012;24.870;2023-04-06T06:46:52;11.68;;;7.03;;
46411;SDS011;32113;42.012;24.870;2023-04-06T06:49:18;14.70;;;8.40;;
46411;SDS011;32113;42.012;24.870;2023-04-06T06:51:43;10.75;;;7.90;;
46411;SDS011;32113;42.012;24.870;2023-04-06T06:54:09;9.63;;;7.03;;
46411;SDS011;32113;42.012;24.870;2023-04-06T06:56:35;11.10;;;7.90;;
46411;SDS011;32113;42.012;24.870;2023-04-06T06:59:02;11.98;;;7.20;;
46411;SDS011;32113;42.012;24.870;2023-04-06T07:01:28;10.57;;;7.68;;
46411;SDS011;32113;42.012;24.870;2023-04-06T07:03:53;9.10;;;6.90;;
46411;SDS011;32113;42.012;24.870;2023-04-06T07:06:18;7.03;;;5.90;;
46411;SDS011;32113;42.012;24.870;2023-04-06T07:08:44;8.98;;;6.82;;
46411;SDS011;32113;42.012;24.870;2023-04-06T07:11:10;10.63;;;7.35;;
46411;SDS011;32113;42.012;24.870;2023-04-06T07:13:35;9.27;;;6.70;;
46411;SDS011;32113;42.012;24.870;2023-04-06T07:16:01;6.95;;;5.57;;
46411;SDS011;32113;42.012;24.870;2023-04-06T07:18:26;5.15;;;4.43;;
46411;SDS011;32113;42.012;24.870;2023-04-06T07:20:52;6.28;;;4.55;;
46411;SDS011;32113;42.012;24.870;2023-04-06T07:23:17;7.10;;;5.18;;
46411;SDS011;32113;42.012;24.870;2023-04-06T07:25:43;4.88;;;3.83;;
46411;SDS011;32113;42.012;24.870;2023-04-06T07:28:08;5.25;;;3.30;;
46411;SDS011;32113;42.012;24.870;2023-04-06T07:30:34;4.60;;;3.58;;
46411;SDS011;32113;42.012;24.870;2023-04-06T07:32:59;6.15;;;4.20;;
46411;SDS011;32113;42.012;24.870;2023-04-06T07:35:25;4.28;;;3.22;;
46411;SDS011;32113;42.012;24.870;2023-04-06T07:37:54;6.57;;;3.42;;
46411;SDS011;32113;42.012;24.870;2023-04-06T07:40:20;5.13;;;3.65;;
46411;SDS011;32113;42.012;24.870;2023-04-06T07:42:45;5.65;;;3.97;;
46411;SDS011;32113;42.012;24.870;2023-04-06T07:45:11;3.55;;;3.13;;
46411;SDS011;32113;42.012;24.870;2023-04-06T07:47:36;4.22;;;3.70;;
46411;SDS011;32113;42.012;24.870;2023-04-06T07:50:02;9.93;;;3.47;;
46411;SDS011;32113;42.012;24.870;2023-04-06T07:52:28;6.30;;;3.40;;
46411;SDS011;32113;42.012;24.870;2023-04-06T07:54:53;4.90;;;3.10;;
46411;SDS011;32113;42.012;24.870;2023-04-06T07:57:19;6.03;;;3.70;;
46411;SDS011;32113;42.012;24.870;2023-04-06T07:59:44;5.72;;;3.22;;
46411;SDS011;32113;42.012;24.870;2023-04-06T08:02:10;5.43;;;3.15;;
46411;SDS011;32113;42.012;24.870;2023-04-06T08:04:35;6.28;;;4.32;;
46411;SDS011;32113;42.012;24.870;2023-04-06T08:07:01;4.30;;;3.28;;
46411;SDS011;32113;42.012;24.870;2023-04-06T08:09:26;6.00;;;4.25;;
46411;SDS011;32113;42.012;24.870;2023-04-06T08:11:52;6.68;;;4.43;;
46411;SDS011;32113;42.012;24.870;2023-04-06T08:14:18;5.28;;;4.13;;
46411;SDS011;32113;42.012;24.870;2023-04-06T08:16:43;5.07;;;3.80;;
46411;SDS011;32113;42.012;24.870;2023-04-06T08:19:08;4.97;;;3.45;;
46411;SDS011;32113;42.012;24.870;2023-04-06T08:21:37;5.25;;;3.78;;
46411;SDS011;32113;42.012;24.870;2023-04-06T08:24:03;10.25;;;5.68;;
46411;SDS011;32113;42.012;24.870;2023-04-06T08:26:28;7.47;;;4.80;;
46411;SDS011;32113;42.012;24.870;2023-04-06T08:28:54;8.70;;;4.97;;
46411;SDS011;32113;42.012;24.870;2023-04-06T08:31:20;4.22;;;3.28;;
46411;SDS011;32113;42.012;24.870;2023-04-06T08:33:45;3.80;;;3.38;;
46411;SDS011;32113;42.012;24.870;2023-04-06T08:36:11;4.32;;;3.10;;
46411;SDS011;32113;42.012;24.870;2023-04-06T08:38:38;4.78;;;3.58;;
46411;SDS011;32113;42.012;24.870;2023-04-06T08:41:08;4.32;;;3.25;;
46411;SDS011;32113;42.012;24.870;2023-04-06T08:43:36;5.43;;;3.22;;
46411;SDS011;32113;42.012;24.870;2023-04-06T08:46:12;7.15;;;3.50;;
46411;SDS011;32113;42.012;24.870;2023-04-06T08:48:39;3.50;;;2.80;;
46411;SDS011;32113;42.012;24.870;2023-04-06T08:51:06;5.60;;;3.90;;
46411;SDS011;32113;42.012;24.870;2023-04-06T08:53:32;5.22;;;4.25;;
46411;SDS011;32113;42.012;24.870;2023-04-06T08:55:58;5.70;;;3.92;;
46411;SDS011;32113;42.012;24.870;2023-04-06T08:58:24;6.55;;;4.35;;
46411;SDS011;32113;42.012;24.870;2023-04-06T09:00:53;6.63;;;5.28;;
46411;SDS011;32113;42.012;24.870;2023-04-06T09:03:19;5.85;;;4.57;;
46411;SDS011;32113;42.012;24.870;2023-04-06T09:05:46;5.72;;;4.28;;
46411;SDS011;32113;42.012;24.870;2023-04-06T09:08:12;7.32;;;4.50;;
46411;SDS011;32113;42.012;24.870;2023-04-06T09:10:41;5.72;;;4.55;;
46411;SDS011;32113;42.012;24.870;2023-04-06T09:13:07;4.35;;;3.90;;
46411;SDS011;32113;42.012;24.870;2023-04-06T09:15:33;6.80;;;4.50;;
46411;SDS011;32113;42.012;24.870;2023-04-06T09:17:59;5.32;;;4.00;;
46411;SDS011;32113;42.012;24.870;2023-04-06T09:20:25;5.05;;;3.78;;
46411;SDS011;32113;42.012;24.870;2023-04-06T09:22:53;10.38;;;4.90;;
46411;SDS011;32113;42.012;24.870;2023-04-06T09:25:20;7.25;;;4.80;;
46411;SDS011;32113;42.012;24.870;2023-04-06T09:27:48;8.10;;;5.53;;
46411;SDS011;32113;42.012;24.870;2023-04-06T09:30:15;7.63;;;4.30;;
46411;SDS011;32113;42.012;24.870;2023-04-06T09:32:45;5.65;;;4.25;;
46411;SDS011;32113;42.012;24.870;2023-04-06T09:35:12;8.05;;;6.03;;
46411;SDS011;32113;42.012;24.870;2023-04-06T09:37:38;6.85;;;5.13;;
46411;SDS011;32113;42.012;24.870;2023-04-06T09:40:04;7.40;;;5.82;;
46411;SDS011;32113;42.012;24.870;2023-04-06T09:42:30;7.38;;;5.68;;
46411;SDS011;32113;42.012;24.870;2023-04-06T09:44:56;8.70;;;6.15;;
46411;SDS011;32113;42.012;24.870;2023-04-06T09:47:22;6.50;;;5.20;;
46411;SDS011;32113;42.012;24.870;2023-04-06T09:49:48;5.60;;;4.75;;
46411;SDS011;32113;42.012;24.870;2023-04-06T09:52:15;9.25;;;5.22;;
46411;SDS011;32113;42.012;24.870;2023-04-06T09:54:43;7.05;;;4.35;;
46411;SDS011;32113;42.012;24.870;2023-04-06T09:57:14;6.68;;;4.97;;
46411;SDS011;32113;42.012;24.870;2023-04-06T09:59:47;8.30;;;5.47;;
46411;SDS011;32113;42.012;24.870;2023-04-06T10:07:27;6.30;;;4.82;;
46411;SDS011;32113;42.012;24.870;2023-04-06T10:09:53;6.90;;;5.05;;
46411;SDS011;32113;42.012;24.870;2023-04-06T10:12:20;7.68;;;4.75;;
46411;SDS011;32113;42.012;24.870;2023-04-06T10:14:46;6.85;;;4.95;;
46411;SDS011;32113;42.012;24.870;2023-04-06T10:17:11;9.90;;;4.90;;
46411;SDS011;32113;42.012;24.870;2023-04-06T10:19:47;7.55;;;5.10;;
46411;SDS011;32113;42.012;24.870;2023-04-06T10:22:29;6.63;;;4.90;;
46411;SDS011;32113;42.012;24.870;2023-04-06T10:25:01;7.65;;;5.82;;
46411;SDS011;32113;42.012;24.870;2023-04-06T10:27:28;8.05;;;6.25;;
46411;SDS011;32113;42.012;24.870;2023-04-06T10:30:03;8.15;;;5.50;;
46411;SDS011;32113;42.012;24.870;2023-04-06T10:32:37;8.65;;;4.95;;
46411;SDS011;32113;42.012;24.870;2023-04-06T10:35:10;5.78;;;5.03;;
46411;SDS011;32113;42.012;24.870;2023-04-06T10:37:51;6.10;;;4.40;;
46411;SDS011;32113;42.012;24.870;2023-04-06T10:40:18;8.80;;;6.10;;
46411;SDS011;32113;42.012;24.870;2023-04-06T10:42:48;7.32;;;5.80;;
46411;SDS011;32113;42.012;24.870;2023-04-06T10:45:20;6.70;;;5.32;;
46411;SDS011;32113;42.012;24.870;2023-04-06T10:47:49;6.47;;;4.28;;
46411;SDS011;32113;42.012;24.870;2023-04-06T10:50:17;6.55;;;4.72;;
46411;SDS011;32113;42.012;24.870;2023-04-06T10:52:44;6.45;;;4.97;;
46411;SDS011;32113;42.012;24.870;2023-04-06T10:55:10;9.95;;;6.82;;
46411;SDS011;32113;42.012;24.870;2023-04-06T10:57:37;7.13;;;5.72;;
46411;SDS011;32113;42.012;24.870;2023-04-06T11:00:06;6.93;;;5.45;;
46411;SDS011;32113;42.012;24.870;2023-04-06T11:02:33;7.97;;;5.53;;
46411;SDS011;32113;42.012;24.870;2023-04-06T11:05:00;7.60;;;5.18;;
46411;SDS011;32113;42.012;24.870;2023-04-06T11:07:26;7.70;;;5.10;;
46411;SDS011;32113;42.012;24.870;2023-04-06T11:12:23;5.68;;;4.82;;
46411;SDS011;32113;42.012;24.870;2023-04-06T11:14:56;9.02;;;6.10;;
46411;SDS011;32113;42.012;24.870;2023-04-06T11:17:38;6.88;;;5.47;;
46411;SDS011;32113;42.012;24.870;2023-04-06T11:20:04;8.90;;;5.88;;
46411;SDS011;32113;42.012;24.870;2023-04-06T11:22:35;7.82;;;6.00;;
46411;SDS011;32113;42.012;24.870;2023-04-06T11:25:07;8.02;;;5.50;;
46411;SDS011;32113;42.012;24.870;2023-04-06T11:27:34;7.13;;;5.57;;
46411;SDS011;32113;42.012;24.870;2023-04-06T11:30:00;7.93;;;5.88;;
46411;SDS011;32113;42.012;24.870;2023-04-06T11:32:26;15.98;;;9.40;;
46411;SDS011;32113;42.012;24.870;2023-04-06T11:34:52;15.57;;;8.15;;
46411;SDS011;32113;42.012;24.870;2023-04-06T11:37:18;9.65;;;6.30;;
46411;SDS011;32113;42.012;24.870;2023-04-06T11:39:50;6.90;;;5.43;;
46411;SDS011;32113;42.012;24.870;2023-04-06T11:42:29;12.93;;;5.57;;
46411;SDS011;32113;42.012;24.870;2023-04-06T11:44:55;6.35;;;4.63;;
46411;SDS011;32113;42.012;24.870;2023-04-06T11:47:34;5.82;;;4.03;;
46411;SDS011;32113;42.012;24.870;2023-04-06T11:50:06;6.75;;;4.63;;
46411;SDS011;32113;42.012;24.870;2023-04-06T11:52:36;6.53;;;4.82;;
46411;SDS011;32113;42.012;24.870;2023-04-06T11:57:39;10.10;;;6.75;;
46411;SDS011;32113;42.012;24.870;2023-04-06T12:00:06;10.93;;;6.57;;
46411;SDS011;32113;42.012;24.870;2023-04-06T12:04:58;21.83;;;15.75;;
46411;SDS011;32113;42.012;24.870;2023-04-06T12:07:24;14.88;;;8.88;;
46411;SDS011;32113;42.012;24.870;2023-04-06T12:09:49;7.60;;;6.22;;
46411;SDS011;32113;42.012;24.870;2023-04-06T12:12:15;10.23;;;6.70;;
46411;SDS011;32113;42.012;24.870;2023-04-06T12:14:40;7.63;;;6.15;;
46411;SDS011;32113;42.012;24.870;2023-04-06T12:17:06;7.43;;;5.70;;
46411;SDS011;32113;42.012;24.870;2023-04-06T12:19:31;7.38;;;5.50;;
46411;SDS011;32113;42.012;24.870;2023-04-06T12:21:57;9.43;;;6.47;;
46411;SDS011;32113;42.012;24.870;2023-04-06T12:24:22;8.50;;;5.90;;
46411;SDS011;32113;42.012;24.870;2023-04-06T12:26:48;8.10;;;5.68;;
46411;SDS011;32113;42.012;24.870;2023-04-06T12:29:14;18.02;;;10.13;;
46411;SDS011;32113;42.012;24.870;2023-04-06T12:31:39;10.15;;;6.20;;
46411;SDS011;32113;42.012;24.870;2023-04-06T12:34:06;8.95;;;6.72;;
46411;SDS011;32113;42.012;24.870;2023-04-06T12:36:32;6.70;;;5.95;;
46411;SDS011;32113;42.012;24.870;2023-04-06T12:38:58;8.85;;;6.90;;
46411;SDS011;32113;42.012;24.870;2023-04-06T12:41:23;8.13;;;6.30;;
46411;SDS011;32113;42.012;24.870;2023-04-06T12:43:50;7.82;;;6.65;;
46411;SDS011;32113;42.012;24.870;2023-04-06T12:46:15;7.22;;;5.90;;
46411;SDS011;32113;42.012;24.870;2023-04-06T12:48:41;9.07;;;6.03;;
46411;SDS011;32113;42.012;24.870;2023-04-06T12:51:06;10.43;;;8.15;;
46411;SDS011;32113;42.012;24.870;2023-04-06T12:53:33;7.40;;;6.25;;
46411;SDS011;32113;42.012;24.870;2023-04-06T12:55:59;7.25;;;6.05;;
46411;SDS011;32113;42.012;24.870;2023-04-06T12:58:25;8.07;;;6.45;;
46411;SDS011;32113;42.012;24.870;2023-04-06T13:00:52;7.05;;;6.13;;
46411;SDS011;32113;42.012;24.870;2023-04-06T13:03:18;12.95;;;11.18;;
46411;SDS011;32113;42.012;24.870;2023-04-06T13:05:47;6.88;;;5.43;;
46411;SDS011;32113;42.012;24.870;2023-04-06T13:08:14;9.18;;;7.05;;
46411;SDS011;32113;42.012;24.870;2023-04-06T13:10:43;8.82;;;6.60;;
46411;SDS011;32113;42.012;24.870;2023-04-06T13:13:09;8.07;;;6.03;;
46411;SDS011;32113;42.012;24.870;2023-04-06T13:15:35;8.05;;;5.88;;
46411;SDS011;32113;42.012;24.870;2023-04-06T13:18:01;7.93;;;6.10;;
46411;SDS011;32113;42.012;24.870;2023-04-06T13:20:27;8.13;;;5.70;;
46411;SDS011;32113;42.012;24.870;2023-04-06T13:22:53;10.13;;;5.72;;
46411;SDS011;32113;42.012;24.870;2023-04-06T13:25:18;7.95;;;5.85;;
46411;SDS011;32113;42.012;24.870;2023-04-06T13:27:44;10.43;;;6.22;;
46411;SDS011;32113;42.012;24.870;2023-04-06T13:30:11;9.45;;;6.43;;
46411;SDS011;32113;42.012;24.870;2023-04-06T13:32:37;9.93;;;6.53;;
46411;SDS011;32113;42.012;24.870;2023-04-06T13:35:02;7.03;;;5.90;;
46411;SDS011;32113;42.012;24.870;2023-04-06T13:37:28;9.73;;;6.53;;
46411;SDS011;32113;42.012;24.870;2023-04-06T13:39:54;9.55;;;6.97;;
46411;SDS011;32113;42.012;24.870;2023-04-06T13:42:19;10.90;;;6.47;;
46411;SDS011;32113;42.012;24.870;2023-04-06T13:44:45;10.20;;;6.65;;
46411;SDS011;32113;42.012;24.870;2023-04-06T13:47:12;7.68;;;6.13;;
46411;SDS011;32113;42.012;24.870;2023-04-06T13:49:37;7.97;;;6.43;;
46411;SDS011;32113;42.012;24.870;2023-04-06T13:52:03;9.05;;;6.32;;
46411;SDS011;32113;42.012;24.870;2023-04-06T13:54:28;9.15;;;7.00;;
46411;SDS011;32113;42.012;24.870;2023-04-06T13:56:54;8.23;;;6.97;;
46411;SDS011;32113;42.012;24.870;2023-04-06T13:59:20;13.63;;;7.72;;
46411;SDS011;32113;42.012;24.870;2023-04-06T14:01:45;9.63;;;7.05;;
46411;SDS011;32113;42.012;24.870;2023-04-06T14:04:11;14.63;;;10.98;;
46411;SDS011;32113;42.012;24.870;2023-04-06T14:06:36;9.70;;;8.07;;
46411;SDS011;32113;42.012;24.870;2023-04-06T14:09:02;9.15;;;7.10;;
46411;SDS011;32113;42.012;24.870;2023-04-06T14:11:27;10.25;;;7.00;;
46411;SDS011;32113;42.012;24.870;2023-04-06T14:13:53;10.65;;;7.65;;
46411;SDS011;32113;42.012;24.870;2023-04-06T14:16:18;13.13;;;8.75;;
46411;SDS011;32113;42.012;24.870;2023-04-06T14:18:45;23.02;;;13.43;;
46411;SDS011;32113;42.012;24.870;2023-04-06T14:21:10;21.38;;;13.48;;
46411;SDS011;32113;42.012;24.870;2023-04-06T14:23:36;10.18;;;7.70;;
46411;SDS011;32113;42.012;24.870;2023-04-06T14:26:05;8.05;;;5.72;;
46411;SDS011;32113;42.012;24.870;2023-04-06T14:28:32;10.05;;;7.43;;
46411;SDS011;32113;42.012;24.870;2023-04-06T14:30:58;11.13;;;8.10;;